sensor_id;sensor_type;location;lat;lon;timestamp;pressure;altitude;pressure_sealevel;temperature
54746;BMP180;40640;48.130;11.356;2022-09-09T00:00:32;95489.00;;;15.50
54746;BMP180;40640;48.130;11.356;2022-09-09T00:04:37;95477.00;;;15.50
54746;BMP180;40640;48.130;11.356;2022-09-09T00:08:45;95474.00;;;15.50
54746;BMP180;40640;48.130;11.356;2022-09-09T00:12:58;95483.00;;;15.50
54746;BMP180;40640;48.130;11.356;2022-09-09T00:17:07;95477.00;;;15.50
54746;BMP180;40640;48.130;11.356;2022-09-09T00:21:14;95480.00;;;15.60
54746;BMP180;40640;48.130;11.356;2022-09-09T00:25:24;95481.00;;;15.60
54746;BMP180;40640;48.130;11.356;2022-09-09T00:29:35;95464.00;;;15.50
54746;BMP180;40640;48.130;11.356;2022-09-09T00:33:44;95477.00;;;15.40
54746;BMP180;40640;48.130;11.356;2022-09-09T00:37:48;95469.00;;;15.30
54746;BMP180;40640;48.130;11.356;2022-09-09T00:42:05;95474.00;;;15.30
54746;BMP180;40640;48.130;11.356;2022-09-09T00:46:26;95474.00;;;15.30
54746;BMP180;40640;48.130;11.356;2022-09-09T00:50:42;95473.00;;;15.20
54746;BMP180;40640;48.130;11.356;2022-09-09T00:54:52;95468.00;;;15.20
54746;BMP180;40640;48.130;11.356;2022-09-09T00:59:02;95462.00;;;15.20
54746;BMP180;40640;48.130;11.356;2022-09-09T01:03:22;95469.00;;;15.00
54746;BMP180;40640;48.130;11.356;2022-09-09T01:07:29;95476.00;;;15.00
54746;BMP180;40640;48.130;11.356;2022-09-09T01:11:37;95481.00;;;14.90
54746;BMP180;40640;48.130;11.356;2022-09-09T01:15:48;95474.00;;;15.00
54746;BMP180;40640;48.130;11.356;2022-09-09T01:20:00;95474.00;;;14.90
54746;BMP180;40640;48.130;11.356;2022-09-09T01:24:22;95469.00;;;14.90
54746;BMP180;40640;48.130;11.356;2022-09-09T01:28:51;95466.00;;;15.00
54746;BMP180;40640;48.130;11.356;2022-09-09T01:33:00;95470.00;;;15.00
54746;BMP180;40640;48.130;11.356;2022-09-09T01:37:06;95464.00;;;14.90
54746;BMP180;40640;48.130;11.356;2022-09-09T01:41:11;95460.00;;;14.90
54746;BMP180;40640;48.130;11.356;2022-09-09T01:45:23;95467.00;;;14.90
54746;BMP180;40640;48.130;11.356;2022-09-09T01:49:26;95464.00;;;14.80
54746;BMP180;40640;48.130;11.356;2022-09-09T01:53:31;95463.00;;;14.80
54746;BMP180;40640;48.130;11.356;2022-09-09T01:57:41;95467.00;;;14.90
54746;BMP180;40640;48.130;11.356;2022-09-09T02:01:55;95458.00;;;14.90
54746;BMP180;40640;48.130;11.356;2022-09-09T02:06:05;95444.00;;;15.00
54746;BMP180;40640;48.130;11.356;2022-09-09T02:10:16;95437.00;;;15.00
54746;BMP180;40640;48.130;11.356;2022-09-09T02:14:30;95445.00;;;15.00
54746;BMP180;40640;48.130;11.356;2022-09-09T02:18:40;95442.00;;;15.00
54746;BMP180;40640;48.130;11.356;2022-09-09T02:22:49;95442.00;;;15.00
54746;BMP180;40640;48.130;11.356;2022-09-09T02:26:54;95435.00;;;14.90
54746;BMP180;40640;48.130;11.356;2022-09-09T02:30:59;95434.00;;;14.80
54746;BMP180;40640;48.130;11.356;2022-09-09T02:35:13;95438.00;;;14.80
54746;BMP180;40640;48.130;11.356;2022-09-09T02:39:17;95440.00;;;14.90
54746;BMP180;40640;48.130;11.356;2022-09-09T02:43:21;95431.00;;;14.80
54746;BMP180;40640;48.130;11.356;2022-09-09T02:47:30;95440.00;;;14.60
54746;BMP180;40640;48.130;11.356;2022-09-09T02:51:48;95438.00;;;14.60
54746;BMP180;40640;48.130;11.356;2022-09-09T02:55:57;95445.00;;;14.60
54746;BMP180;40640;48.130;11.356;2022-09-09T03:00:02;95444.00;;;14.60
54746;BMP180;40640;48.130;11.356;2022-09-09T03:04:07;95434.00;;;14.70
54746;BMP180;40640;48.130;11.356;2022-09-09T03:08:12;95432.00;;;14.70
54746;BMP180;40640;48.130;11.356;2022-09-09T03:12:17;95434.00;;;14.60
54746;BMP180;40640;48.130;11.356;2022-09-09T03:16:19;95430.00;;;14.50
54746;BMP180;40640;48.130;11.356;2022-09-09T03:20:26;95433.00;;;14.40
54746;BMP180;40640;48.130;11.356;2022-09-09T03:24:31;95435.00;;;14.30
54746;BMP180;40640;48.130;11.356;2022-09-09T03:28:34;95432.00;;;14.20
54746;BMP180;40640;48.130;11.356;2022-09-09T03:32:37;95427.00;;;14.10
54746;BMP180;40640;48.130;11.356;2022-09-09T03:36:41;95429.00;;;14.10
54746;BMP180;40640;48.130;11.356;2022-09-09T03:40:53;95429.00;;;14.10
54746;BMP180;40640;48.130;11.356;2022-09-09T03:44:58;95434.00;;;14.00
54746;BMP180;40640;48.130;11.356;2022-09-09T03:49:01;95433.00;;;14.00
54746;BMP180;40640;48.130;11.356;2022-09-09T03:53:06;95428.00;;;14.00
54746;BMP180;40640;48.130;11.356;2022-09-09T03:57:10;95421.00;;;14.00
54746;BMP180;40640;48.130;11.356;2022-09-09T04:01:14;95417.00;;;13.90
54746;BMP180;40640;48.130;11.356;2022-09-09T04:05:20;95414.00;;;13.90
54746;BMP180;40640;48.130;11.356;2022-09-09T04:09:23;95419.00;;;13.90
54746;BMP180;40640;48.130;11.356;2022-09-09T04:13:28;95415.00;;;13.90
54746;BMP180;40640;48.130;11.356;2022-09-09T04:17:32;95418.00;;;13.90
54746;BMP180;40640;48.130;11.356;2022-09-09T04:21:34;95408.00;;;14.00
54746;BMP180;40640;48.130;11.356;2022-09-09T04:25:37;95409.00;;;14.10
54746;BMP180;40640;48.130;11.356;2022-09-09T04:29:41;95399.00;;;14.00
54746;BMP180;40640;48.130;11.356;2022-09-09T04:33:44;95397.00;;;14.10
54746;BMP180;40640;48.130;11.356;2022-09-09T04:37:47;95396.00;;;14.20
54746;BMP180;40640;48.130;11.356;2022-09-09T04:41:51;95394.00;;;14.20
54746;BMP180;40640;48.130;11.356;2022-09-09T04:45:57;95399.00;;;14.20
54746;BMP180;40640;48.130;11.356;2022-09-09T04:50:01;95394.00;;;14.30
54746;BMP180;40640;48.130;11.356;2022-09-09T04:54:04;95389.00;;;14.30
54746;BMP180;40640;48.130;11.356;2022-09-09T04:58:08;95397.00;;;14.20
54746;BMP180;40640;48.130;11.356;2022-09-09T05:02:12;95388.00;;;14.20
54746;BMP180;40640;48.130;11.356;2022-09-09T05:06:17;95405.00;;;14.10
54746;BMP180;40640;48.130;11.356;2022-09-09T05:10:22;95395.00;;;14.10
54746;BMP180;40640;48.130;11.356;2022-09-09T05:14:25;95389.00;;;14.20
54746;BMP180;40640;48.130;11.356;2022-09-09T05:18:30;95392.00;;;14.40
54746;BMP180;40640;48.130;11.356;2022-09-09T05:22:33;95404.00;;;14.30
54746;BMP180;40640;48.130;11.356;2022-09-09T05:26:37;95405.00;;;14.30
54746;BMP180;40640;48.130;11.356;2022-09-09T05:30:41;95419.00;;;14.30
54746;BMP180;40640;48.130;11.356;2022-09-09T05:34:46;95415.00;;;14.30
54746;BMP180;40640;48.130;11.356;2022-09-09T05:38:49;95420.00;;;14.30
54746;BMP180;40640;48.130;11.356;2022-09-09T05:42:55;95408.00;;;14.30
54746;BMP180;40640;48.130;11.356;2022-09-09T05:47:02;95412.00;;;14.40
54746;BMP180;40640;48.130;11.356;2022-09-09T05:51:08;95413.00;;;14.40
54746;BMP180;40640;48.130;11.356;2022-09-09T05:55:11;95424.00;;;14.60
54746;BMP180;40640;48.130;11.356;2022-09-09T05:59:14;95423.00;;;14.60
54746;BMP180;40640;48.130;11.356;2022-09-09T06:03:17;95425.00;;;14.60
54746;BMP180;40640;48.130;11.356;2022-09-09T06:07:22;95426.00;;;14.60
54746;BMP180;40640;48.130;11.356;2022-09-09T06:11:26;95422.00;;;14.70
54746;BMP180;40640;48.130;11.356;2022-09-09T06:15:29;95420.00;;;14.80
54746;BMP180;40640;48.130;11.356;2022-09-09T06:19:33;95430.00;;;14.90
54746;BMP180;40640;48.130;11.356;2022-09-09T06:23:39;95425.00;;;14.90
54746;BMP180;40640;48.130;11.356;2022-09-09T06:27:48;95427.00;;;14.90
54746;BMP180;40640;48.130;11.356;2022-09-09T06:31:51;95432.00;;;15.00
54746;BMP180;40640;48.130;11.356;2022-09-09T06:35:56;95423.00;;;15.00
54746;BMP180;40640;48.130;11.356;2022-09-09T06:40:01;95423.00;;;15.10
54746;BMP180;40640;48.130;11.356;2022-09-09T06:44:04;95438.00;;;15.10
54746;BMP180;40640;48.130;11.356;2022-09-09T06:48:15;95436.00;;;15.20
54746;BMP180;40640;48.130;11.356;2022-09-09T06:52:18;95460.00;;;15.30
54746;BMP180;40640;48.130;11.356;2022-09-09T06:56:25;95485.00;;;15.50
54746;BMP180;40640;48.130;11.356;2022-09-09T07:00:30;95484.00;;;15.70
54746;BMP180;40640;48.130;11.356;2022-09-09T07:04:33;95487.00;;;15.90
54746;BMP180;40640;48.130;11.356;2022-09-09T07:08:38;95486.00;;;16.30
54746;BMP180;40640;48.130;11.356;2022-09-09T07:12:42;95483.00;;;16.70
54746;BMP180;40640;48.130;11.356;2022-09-09T07:16:47;95480.00;;;17.10
54746;BMP180;40640;48.130;11.356;2022-09-09T07:20:55;95490.00;;;17.40
54746;BMP180;40640;48.130;11.356;2022-09-09T07:25:00;95482.00;;;17.60
54746;BMP180;40640;48.130;11.356;2022-09-09T07:29:05;95473.00;;;17.30
54746;BMP180;40640;48.130;11.356;2022-09-09T07:33:08;95476.00;;;17.30
54746;BMP180;40640;48.130;11.356;2022-09-09T07:37:11;95480.00;;;17.50
54746;BMP180;40640;48.130;11.356;2022-09-09T07:41:19;95491.00;;;17.40
54746;BMP180;40640;48.130;11.356;2022-09-09T07:45:26;95488.00;;;17.70
54746;BMP180;40640;48.130;11.356;2022-09-09T07:49:30;95499.00;;;17.80
54746;BMP180;40640;48.130;11.356;2022-09-09T07:53:35;95498.00;;;17.70
54746;BMP180;40640;48.130;11.356;2022-09-09T07:57:40;95516.00;;;17.90
54746;BMP180;40640;48.130;11.356;2022-09-09T08:01:45;95508.00;;;17.90
54746;BMP180;40640;48.130;11.356;2022-09-09T08:05:52;95518.00;;;18.00
54746;BMP180;40640;48.130;11.356;2022-09-09T08:09:55;95522.00;;;17.90
54746;BMP180;40640;48.130;11.356;2022-09-09T08:14:03;95523.00;;;17.50
54746;BMP180;40640;48.130;11.356;2022-09-09T08:18:08;95530.00;;;17.30
54746;BMP180;40640;48.130;11.356;2022-09-09T08:22:12;95534.00;;;17.20
54746;BMP180;40640;48.130;11.356;2022-09-09T08:26:16;95538.00;;;17.10
54746;BMP180;40640;48.130;11.356;2022-09-09T08:30:21;95545.00;;;17.30
54746;BMP180;40640;48.130;11.356;2022-09-09T08:34:25;95553.00;;;17.50
54746;BMP180;40640;48.130;11.356;2022-09-09T08:38:30;95548.00;;;17.70
54746;BMP180;40640;48.130;11.356;2022-09-09T08:42:41;95553.00;;;18.30
54746;BMP180;40640;48.130;11.356;2022-09-09T08:46:53;95547.00;;;18.70
54746;BMP180;40640;48.130;11.356;2022-09-09T08:51:01;95552.00;;;18.70
54746;BMP180;40640;48.130;11.356;2022-09-09T08:55:18;95540.00;;;18.60
54746;BMP180;40640;48.130;11.356;2022-09-09T08:59:23;95539.00;;;18.60
54746;BMP180;40640;48.130;11.356;2022-09-09T09:03:35;95540.00;;;18.60
54746;BMP180;40640;48.130;11.356;2022-09-09T09:07:58;95535.00;;;18.80
54746;BMP180;40640;48.130;11.356;2022-09-09T09:12:14;95536.00;;;18.90
54746;BMP180;40640;48.130;11.356;2022-09-09T09:16:23;95535.00;;;19.00
54746;BMP180;40640;48.130;11.356;2022-09-09T09:20:34;95540.00;;;19.40
54746;BMP180;40640;48.130;11.356;2022-09-09T09:24:49;95528.00;;;19.60
54746;BMP180;40640;48.130;11.356;2022-09-09T09:28:56;95534.00;;;19.20
54746;BMP180;40640;48.130;11.356;2022-09-09T09:33:01;95536.00;;;18.50
54746;BMP180;40640;48.130;11.356;2022-09-09T09:37:12;95549.00;;;18.20
54746;BMP180;40640;48.130;11.356;2022-09-09T09:41:31;95549.00;;;17.80
54746;BMP180;40640;48.130;11.356;2022-09-09T09:45:35;95550.00;;;17.80
54746;BMP180;40640;48.130;11.356;2022-09-09T09:49:57;95546.00;;;17.90
54746;BMP180;40640;48.130;11.356;2022-09-09T09:54:09;95552.00;;;17.70
54746;BMP180;40640;48.130;11.356;2022-09-09T09:58:21;95550.00;;;17.50
54746;BMP180;40640;48.130;11.356;2022-09-09T10:02:24;95553.00;;;17.50
54746;BMP180;40640;48.130;11.356;2022-09-09T10:06:34;95561.00;;;17.70
54746;BMP180;40640;48.130;11.356;2022-09-09T10:10:51;95560.00;;;17.90
54746;BMP180;40640;48.130;11.356;2022-09-09T10:15:00;95559.00;;;18.50
54746;BMP180;40640;48.130;11.356;2022-09-09T10:19:09;95550.00;;;18.60
54746;BMP180;40640;48.130;11.356;2022-09-09T10:23:31;95550.00;;;18.40
54746;BMP180;40640;48.130;11.356;2022-09-09T10:27:47;95550.00;;;18.30
54746;BMP180;40640;48.130;11.356;2022-09-09T10:32:10;95545.00;;;18.40
54746;BMP180;40640;48.130;11.356;2022-09-09T10:36:19;95548.00;;;18.60
54746;BMP180;40640;48.130;11.356;2022-09-09T10:40:31;95542.00;;;18.80
54746;BMP180;40640;48.130;11.356;2022-09-09T10:44:57;95538.00;;;18.60
54746;BMP180;40640;48.130;11.356;2022-09-09T10:49:13;95540.00;;;18.60
54746;BMP180;40640;48.130;11.356;2022-09-09T10:53:35;95543.00;;;19.10
54746;BMP180;40640;48.130;11.356;2022-09-09T10:57:41;95539.00;;;18.90
54746;BMP180;40640;48.130;11.356;2022-09-09T11:01:48;95539.00;;;18.90
54746;BMP180;40640;48.130;11.356;2022-09-09T11:05:58;95541.00;;;19.90
54746;BMP180;40640;48.130;11.356;2022-09-09T11:10:04;95525.00;;;20.70
54746;BMP180;40640;48.130;11.356;2022-09-09T11:14:13;95525.00;;;21.10
54746;BMP180;40640;48.130;11.356;2022-09-09T11:18:20;95530.00;;;21.80
54746;BMP180;40640;48.130;11.356;2022-09-09T11:22:27;95534.00;;;22.10
54746;BMP180;40640;48.130;11.356;2022-09-09T11:26:35;95487.00;;;23.90
54746;BMP180;40640;48.130;11.356;2022-09-09T11:30:48;95519.00;;;26.00
54746;BMP180;40640;48.130;11.356;2022-09-09T11:35:02;95519.00;;;23.70
54746;BMP180;40640;48.130;11.356;2022-09-09T11:39:24;95525.00;;;23.20
54746;BMP180;40640;48.130;11.356;2022-09-09T11:43:34;95532.00;;;22.50
54746;BMP180;40640;48.130;11.356;2022-09-09T11:47:51;95541.00;;;21.50
54746;BMP180;40640;48.130;11.356;2022-09-09T11:51:54;95535.00;;;21.00
54746;BMP180;40640;48.130;11.356;2022-09-09T11:56:05;95536.00;;;21.10
54746;BMP180;40640;48.130;11.356;2022-09-09T12:00:33;95543.00;;;19.90
54746;BMP180;40640;48.130;11.356;2022-09-09T12:04:38;95537.00;;;20.60
54746;BMP180;40640;48.130;11.356;2022-09-09T12:08:43;95530.00;;;21.00
54746;BMP180;40640;48.130;11.356;2022-09-09T12:12:48;95529.00;;;21.10
54746;BMP180;40640;48.130;11.356;2022-09-09T12:16:51;95533.00;;;21.10
54746;BMP180;40640;48.130;11.356;2022-09-09T12:20:59;95526.00;;;21.50
54746;BMP180;40640;48.130;11.356;2022-09-09T12:25:12;95532.00;;;21.10
54746;BMP180;40640;48.130;11.356;2022-09-09T12:29:28;95536.00;;;20.50
54746;BMP180;40640;48.130;11.356;2022-09-09T12:33:35;95532.00;;;20.90
54746;BMP180;40640;48.130;11.356;2022-09-09T12:37:41;95523.00;;;21.00
54746;BMP180;40640;48.130;11.356;2022-09-09T12:41:51;95520.00;;;21.50
54746;BMP180;40640;48.130;11.356;2022-09-09T12:46:02;95517.00;;;21.50
54746;BMP180;40640;48.130;11.356;2022-09-09T12:50:16;95523.00;;;20.90
54746;BMP180;40640;48.130;11.356;2022-09-09T12:54:19;95519.00;;;20.90
54746;BMP180;40640;48.130;11.356;2022-09-09T12:58:23;95508.00;;;20.50
54746;BMP180;40640;48.130;11.356;2022-09-09T13:02:28;95504.00;;;20.50
54746;BMP180;40640;48.130;11.356;2022-09-09T13:06:32;95491.00;;;20.70
54746;BMP180;40640;48.130;11.356;2022-09-09T13:10:39;95497.00;;;21.70
54746;BMP180;40640;48.130;11.356;2022-09-09T13:14:56;95483.00;;;22.10
54746;BMP180;40640;48.130;11.356;2022-09-09T13:19:02;95479.00;;;22.90
54746;BMP180;40640;48.130;11.356;2022-09-09T13:23:11;95488.00;;;21.50
54746;BMP180;40640;48.130;11.356;2022-09-09T13:27:25;95476.00;;;21.20
54746;BMP180;40640;48.130;11.356;2022-09-09T13:31:30;95475.00;;;21.50
54746;BMP180;40640;48.130;11.356;2022-09-09T13:35:36;95463.00;;;22.20
54746;BMP180;40640;48.130;11.356;2022-09-09T13:39:51;95464.00;;;21.60
54746;BMP180;40640;48.130;11.356;2022-09-09T13:43:55;95474.00;;;20.30
54746;BMP180;40640;48.130;11.356;2022-09-09T13:48:08;95476.00;;;19.50
54746;BMP180;40640;48.130;11.356;2022-09-09T13:52:15;95478.00;;;19.40
54746;BMP180;40640;48.130;11.356;2022-09-09T13:56:19;95480.00;;;19.30
54746;BMP180;40640;48.130;11.356;2022-09-09T14:00:22;95477.00;;;19.00
54746;BMP180;40640;48.130;11.356;2022-09-09T14:04:25;95474.00;;;19.20
54746;BMP180;40640;48.130;11.356;2022-09-09T14:08:29;95474.00;;;18.90
54746;BMP180;40640;48.130;11.356;2022-09-09T14:12:38;95486.00;;;19.00
54746;BMP180;40640;48.130;11.356;2022-09-09T14:16:41;95484.00;;;18.90
54746;BMP180;40640;48.130;11.356;2022-09-09T14:20:44;95480.00;;;19.10
54746;BMP180;40640;48.130;11.356;2022-09-09T14:24:48;95488.00;;;18.80
54746;BMP180;40640;48.130;11.356;2022-09-09T14:28:51;95483.00;;;18.70
54746;BMP180;40640;48.130;11.356;2022-09-09T14:32:56;95487.00;;;18.70
54746;BMP180;40640;48.130;11.356;2022-09-09T14:36:59;95478.00;;;18.80
54746;BMP180;40640;48.130;11.356;2022-09-09T14:41:03;95487.00;;;18.80
54746;BMP180;40640;48.130;11.356;2022-09-09T14:45:07;95489.00;;;18.80
54746;BMP180;40640;48.130;11.356;2022-09-09T14:49:09;95493.00;;;18.60
54746;BMP180;40640;48.130;11.356;2022-09-09T14:53:16;95497.00;;;18.40
54746;BMP180;40640;48.130;11.356;2022-09-09T14:57:20;95490.00;;;18.50
54746;BMP180;40640;48.130;11.356;2022-09-09T15:01:24;95487.00;;;18.90
54746;BMP180;40640;48.130;11.356;2022-09-09T15:05:28;95485.00;;;19.50
54746;BMP180;40640;48.130;11.356;2022-09-09T15:09:33;95491.00;;;20.10
54746;BMP180;40640;48.130;11.356;2022-09-09T15:13:38;95479.00;;;20.40
54746;BMP180;40640;48.130;11.356;2022-09-09T15:17:41;95474.00;;;19.80
54746;BMP180;40640;48.130;11.356;2022-09-09T15:21:44;95467.00;;;19.60
54746;BMP180;40640;48.130;11.356;2022-09-09T15:25:51;95468.00;;;20.00
54746;BMP180;40640;48.130;11.356;2022-09-09T15:29:55;95474.00;;;19.90
54746;BMP180;40640;48.130;11.356;2022-09-09T15:34:00;95467.00;;;19.90
54746;BMP180;40640;48.130;11.356;2022-09-09T15:38:03;95462.00;;;19.60
54746;BMP180;40640;48.130;11.356;2022-09-09T15:42:07;95464.00;;;19.00
54746;BMP180;40640;48.130;11.356;2022-09-09T15:46:24;95479.00;;;18.70
54746;BMP180;40640;48.130;11.356;2022-09-09T15:50:29;95473.00;;;18.50
54746;BMP180;40640;48.130;11.356;2022-09-09T15:54:35;95474.00;;;18.40
54746;BMP180;40640;48.130;11.356;2022-09-09T15:58:40;95467.00;;;18.30
54746;BMP180;40640;48.130;11.356;2022-09-09T16:02:47;95463.00;;;18.60
54746;BMP180;40640;48.130;11.356;2022-09-09T16:06:50;95458.00;;;19.10
54746;BMP180;40640;48.130;11.356;2022-09-09T16:10:53;95459.00;;;19.20
54746;BMP180;40640;48.130;11.356;2022-09-09T16:14:56;95450.00;;;18.80
54746;BMP180;40640;48.130;11.356;2022-09-09T16:19:03;95449.00;;;18.80
54746;BMP180;40640;48.130;11.356;2022-09-09T16:23:06;95441.00;;;18.60
54746;BMP180;40640;48.130;11.356;2022-09-09T16:27:09;95433.00;;;18.40
54746;BMP180;40640;48.130;11.356;2022-09-09T16:31:14;95437.00;;;18.30
54746;BMP180;40640;48.130;11.356;2022-09-09T16:35:19;95437.00;;;18.20
54746;BMP180;40640;48.130;11.356;2022-09-09T16:39:23;95437.00;;;18.10
54746;BMP180;40640;48.130;11.356;2022-09-09T16:43:26;95434.00;;;17.90
54746;BMP180;40640;48.130;11.356;2022-09-09T16:47:28;95434.00;;;17.90
54746;BMP180;40640;48.130;11.356;2022-09-09T16:51:34;95437.00;;;17.80
54746;BMP180;40640;48.130;11.356;2022-09-09T16:55:39;95439.00;;;17.80
54746;BMP180;40640;48.130;11.356;2022-09-09T16:59:42;95442.00;;;17.60
54746;BMP180;40640;48.130;11.356;2022-09-09T17:03:45;95434.00;;;17.50
54746;BMP180;40640;48.130;11.356;2022-09-09T17:07:49;95438.00;;;17.50
54746;BMP180;40640;48.130;11.356;2022-09-09T17:11:53;95439.00;;;17.30
54746;BMP180;40640;48.130;11.356;2022-09-09T17:15:56;95451.00;;;17.20
54746;BMP180;40640;48.130;11.356;2022-09-09T17:20:04;95437.00;;;17.00
54746;BMP180;40640;48.130;11.356;2022-09-09T17:24:10;95435.00;;;16.90
54746;BMP180;40640;48.130;11.356;2022-09-09T17:28:13;95436.00;;;16.80
54746;BMP180;40640;48.130;11.356;2022-09-09T17:32:16;95448.00;;;16.70
54746;BMP180;40640;48.130;11.356;2022-09-09T17:36:21;95453.00;;;16.60
54746;BMP180;40640;48.130;11.356;2022-09-09T17:40:25;95451.00;;;16.50
54746;BMP180;40640;48.130;11.356;2022-09-09T17:44:29;95464.00;;;16.40
54746;BMP180;40640;48.130;11.356;2022-09-09T17:48:34;95471.00;;;16.30
54746;BMP180;40640;48.130;11.356;2022-09-09T17:52:38;95465.00;;;16.30
54746;BMP180;40640;48.130;11.356;2022-09-09T17:56:43;95463.00;;;16.20
54746;BMP180;40640;48.130;11.356;2022-09-09T18:00:46;95469.00;;;16.10
54746;BMP180;40640;48.130;11.356;2022-09-09T18:04:49;95463.00;;;16.10
54746;BMP180;40640;48.130;11.356;2022-09-09T18:08:55;95474.00;;;16.00
54746;BMP180;40640;48.130;11.356;2022-09-09T18:12:59;95474.00;;;15.90
54746;BMP180;40640;48.130;11.356;2022-09-09T18:17:03;95474.00;;;15.90
54746;BMP180;40640;48.130;11.356;2022-09-09T18:21:07;95474.00;;;15.80
54746;BMP180;40640;48.130;11.356;2022-09-09T18:25:10;95479.00;;;15.80
54746;BMP180;40640;48.130;11.356;2022-09-09T18:29:16;95485.00;;;15.70
54746;BMP180;40640;48.130;11.356;2022-09-09T18:33:20;95499.00;;;15.50
54746;BMP180;40640;48.130;11.356;2022-09-09T18:37:23;95509.00;;;15.50
54746;BMP180;40640;48.130;11.356;2022-09-09T18:41:28;95512.00;;;15.60
54746;BMP180;40640;48.130;11.356;2022-09-09T18:45:35;95511.00;;;15.40
54746;BMP180;40640;48.130;11.356;2022-09-09T18:49:39;95507.00;;;15.30
54746;BMP180;40640;48.130;11.356;2022-09-09T18:53:42;95507.00;;;15.20
54746;BMP180;40640;48.130;11.356;2022-09-09T18:57:44;95515.00;;;15.20
54746;BMP180;40640;48.130;11.356;2022-09-09T19:01:51;95531.00;;;15.20
54746;BMP180;40640;48.130;11.356;2022-09-09T19:06:00;95576.00;;;15.30
54746;BMP180;40640;48.130;11.356;2022-09-09T19:10:04;95574.00;;;15.50
54746;BMP180;40640;48.130;11.356;2022-09-09T19:14:10;95584.00;;;15.60
54746;BMP180;40640;48.130;11.356;2022-09-09T19:18:15;95587.00;;;15.70
54746;BMP180;40640;48.130;11.356;2022-09-09T19:22:17;95593.00;;;15.60
54746;BMP180;40640;48.130;11.356;2022-09-09T19:26:21;95593.00;;;15.60
54746;BMP180;40640;48.130;11.356;2022-09-09T19:30:24;95585.00;;;15.50
54746;BMP180;40640;48.130;11.356;2022-09-09T19:34:28;95599.00;;;15.50
54746;BMP180;40640;48.130;11.356;2022-09-09T19:38:32;95599.00;;;15.50
54746;BMP180;40640;48.130;11.356;2022-09-09T19:42:35;95604.00;;;15.50
54746;BMP180;40640;48.130;11.356;2022-09-09T19:46:40;95598.00;;;15.30
54746;BMP180;40640;48.130;11.356;2022-09-09T19:50:45;95595.00;;;15.10
54746;BMP180;40640;48.130;11.356;2022-09-09T19:54:48;95604.00;;;15.20
54746;BMP180;40640;48.130;11.356;2022-09-09T19:58:51;95598.00;;;15.20
54746;BMP180;40640;48.130;11.356;2022-09-09T20:02:54;95606.00;;;15.10
54746;BMP180;40640;48.130;11.356;2022-09-09T20:07:20;95609.00;;;15.00
54746;BMP180;40640;48.130;11.356;2022-09-09T20:11:24;95607.00;;;15.00
54746;BMP180;40640;48.130;11.356;2022-09-09T20:15:28;95613.00;;;14.90
54746;BMP180;40640;48.130;11.356;2022-09-09T20:19:30;95619.00;;;14.80
54746;BMP180;40640;48.130;11.356;2022-09-09T20:23:35;95604.00;;;14.70
54746;BMP180;40640;48.130;11.356;2022-09-09T20:27:37;95601.00;;;14.50
54746;BMP180;40640;48.130;11.356;2022-09-09T20:31:40;95603.00;;;14.40
54746;BMP180;40640;48.130;11.356;2022-09-09T20:35:44;95603.00;;;14.20
54746;BMP180;40640;48.130;11.356;2022-09-09T20:39:48;95600.00;;;14.10
54746;BMP180;40640;48.130;11.356;2022-09-09T20:43:52;95592.00;;;14.10
54746;BMP180;40640;48.130;11.356;2022-09-09T20:47:55;95595.00;;;14.10
54746;BMP180;40640;48.130;11.356;2022-09-09T20:51:58;95609.00;;;14.10
54746;BMP180;40640;48.130;11.356;2022-09-09T20:56:03;95615.00;;;14.30
54746;BMP180;40640;48.130;11.356;2022-09-09T21:00:06;95614.00;;;14.20
54746;BMP180;40640;48.130;11.356;2022-09-09T21:04:09;95623.00;;;14.40
54746;BMP180;40640;48.130;11.356;2022-09-09T21:08:12;95628.00;;;14.60
54746;BMP180;40640;48.130;11.356;2022-09-09T21:12:17;95642.00;;;14.80
54746;BMP180;40640;48.130;11.356;2022-09-09T21:16:20;95655.00;;;14.80
54746;BMP180;40640;48.130;11.356;2022-09-09T21:20:22;95668.00;;;15.00
54746;BMP180;40640;48.130;11.356;2022-09-09T21:24:25;95683.00;;;15.10
54746;BMP180;40640;48.130;11.356;2022-09-09T21:28:30;95679.00;;;15.00
54746;BMP180;40640;48.130;11.356;2022-09-09T21:32:32;95670.00;;;14.70
54746;BMP180;40640;48.130;11.356;2022-09-09T21:36:35;95654.00;;;14.20
54746;BMP180;40640;48.130;11.356;2022-09-09T21:40:39;95662.00;;;14.30
54746;BMP180;40640;48.130;11.356;2022-09-09T21:44:43;95659.00;;;14.10
54746;BMP180;40640;48.130;11.356;2022-09-09T21:48:46;95666.00;;;14.00
54746;BMP180;40640;48.130;11.356;2022-09-09T21:52:49;95677.00;;;13.90
54746;BMP180;40640;48.130;11.356;2022-09-09T21:56:51;95674.00;;;13.80
54746;BMP180;40640;48.130;11.356;2022-09-09T22:00:56;95661.00;;;13.60
54746;BMP180;40640;48.130;11.356;2022-09-09T22:04:59;95658.00;;;13.60
54746;BMP180;40640;48.130;11.356;2022-09-09T22:09:01;95658.00;;;13.60
54746;BMP180;40640;48.130;11.356;2022-09-09T22:13:04;95664.00;;;13.60
54746;BMP180;40640;48.130;11.356;2022-09-09T22:17:09;95663.00;;;13.50
54746;BMP180;40640;48.130;11.356;2022-09-09T22:21:14;95662.00;;;13.30
54746;BMP180;40640;48.130;11.356;2022-09-09T22:25:17;95669.00;;;13.30
54746;BMP180;40640;48.130;11.356;2022-09-09T22:29:20;95670.00;;;13.20
54746;BMP180;40640;48.130;11.356;2022-09-09T22:33:24;95668.00;;;13.20
54746;BMP180;40640;48.130;11.356;2022-09-09T22:37:27;95666.00;;;13.00
54746;BMP180;40640;48.130;11.356;2022-09-09T22:41:30;95669.00;;;12.90
54746;BMP180;40640;48.130;11.356;2022-09-09T22:45:35;95658.00;;;12.70
54746;BMP180;40640;48.130;11.356;2022-09-09T22:49:39;95668.00;;;12.70
54746;BMP180;40640;48.130;11.356;2022-09-09T22:53:44;95663.00;;;12.50
54746;BMP180;40640;48.130;11.356;2022-09-09T22:57:46;95660.00;;;12.50
54746;BMP180;40640;48.130;11.356;2022-09-09T23:01:49;95666.00;;;12.40
54746;BMP180;40640;48.130;11.356;2022-09-09T23:05:55;95662.00;;;12.30
54746;BMP180;40640;48.130;11.356;2022-09-09T23:09:58;95649.00;;;12.30
54746;BMP180;40640;48.130;11.356;2022-09-09T23:14:03;95643.00;;;12.20
54746;BMP180;40640;48.130;11.356;2022-09-09T23:18:06;95648.00;;;12.30